sensor_id;sensor_type;location;lat;lon;timestamp;pressure;altitude;pressure_sealevel;temperature;humidity
40948;BME280;49382;-25.924;28.194;2023-06-26T00:02:06;85514.16;;;13.41;31.83
40948;BME280;49382;-25.924;28.194;2023-06-26T00:04:31;85515.90;;;12.69;32.37
40948;BME280;49382;-25.924;28.194;2023-06-26T00:06:57;85513.58;;;13.86;30.80
40948;BME280;49382;-25.924;28.194;2023-06-26T00:09:22;85511.25;;;12.14;33.07
40948;BME280;49382;-25.924;28.194;2023-06-26T00:11:47;85512.68;;;12.90;32.52
40948;BME280;49382;-25.924;28.194;2023-06-26T00:14:13;85516.57;;;13.19;31.83
40948;BME280;49382;-25.924;28.194;2023-06-26T00:16:38;85515.76;;;13.25;31.15
40948;BME280;49382;-25.924;28.194;2023-06-26T00:19:03;85513.32;;;12.26;32.50
40948;BME280;49382;-25.924;28.194;2023-06-26T00:21:28;85516.88;;;13.10;31.18
40948;BME280;49382;-25.924;28.194;2023-06-26T00:23:54;85514.07;;;13.65;30.65
40948;BME280;49382;-25.924;28.194;2023-06-26T00:26:19;85514.06;;;13.83;30.64
40948;BME280;49382;-25.924;28.194;2023-06-26T00:28:45;85511.50;;;14.06;30.39
40948;BME280;49382;-25.924;28.194;2023-06-26T00:31:10;85511.71;;;13.82;29.99
40948;BME280;49382;-25.924;28.194;2023-06-26T00:33:35;85510.18;;;13.43;30.65
40948;BME280;49382;-25.924;28.194;2023-06-26T00:36:01;85504.40;;;12.69;30.98
40948;BME280;49382;-25.924;28.194;2023-06-26T00:38:26;85505.19;;;12.71;32.18
40948;BME280;49382;-25.924;28.194;2023-06-26T00:40:52;85505.35;;;13.23;31.42
40948;BME280;49382;-25.924;28.194;2023-06-26T00:43:17;85505.27;;;12.61;32.16
40948;BME280;49382;-25.924;28.194;2023-06-26T00:45:43;85504.48;;;13.45;31.23
40948;BME280;49382;-25.924;28.194;2023-06-26T00:48:10;85502.39;;;14.08;30.19
40948;BME280;49382;-25.924;28.194;2023-06-26T00:50:34;85503.34;;;13.72;30.33
40948;BME280;49382;-25.924;28.194;2023-06-26T00:53:00;85501.05;;;12.80;30.71
40948;BME280;49382;-25.924;28.194;2023-06-26T00:55:25;85497.32;;;14.20;29.11
40948;BME280;49382;-25.924;28.194;2023-06-26T00:57:50;85496.84;;;14.32;29.15
40948;BME280;49382;-25.924;28.194;2023-06-26T01:00:16;85495.37;;;13.91;29.61
40948;BME280;49382;-25.924;28.194;2023-06-26T01:02:41;85494.87;;;13.62;29.90
40948;BME280;49382;-25.924;28.194;2023-06-26T01:05:07;85496.01;;;13.80;29.90
40948;BME280;49382;-25.924;28.194;2023-06-26T01:07:33;85495.93;;;14.29;29.41
40948;BME280;49382;-25.924;28.194;2023-06-26T01:09:58;85493.89;;;14.50;29.04
40948;BME280;49382;-25.924;28.194;2023-06-26T01:12:24;85493.33;;;14.40;29.15
40948;BME280;49382;-25.924;28.194;2023-06-26T01:14:50;85495.02;;;14.56;29.03
40948;BME280;49382;-25.924;28.194;2023-06-26T01:17:15;85493.40;;;14.14;29.35
40948;BME280;49382;-25.924;28.194;2023-06-26T01:19:41;85490.31;;;14.05;29.31
40948;BME280;49382;-25.924;28.194;2023-06-26T01:22:19;85487.17;;;14.57;28.68
40948;BME280;49382;-25.924;28.194;2023-06-26T01:24:35;85491.62;;;14.62;28.81
40948;BME280;49382;-25.924;28.194;2023-06-26T01:26:58;85489.99;;;14.31;29.45
40948;BME280;49382;-25.924;28.194;2023-06-26T01:29:24;85485.47;;;14.22;29.52
40948;BME280;49382;-25.924;28.194;2023-06-26T01:31:49;85484.91;;;14.46;29.42
40948;BME280;49382;-25.924;28.194;2023-06-26T01:34:15;85482.86;;;14.53;29.19
40948;BME280;49382;-25.924;28.194;2023-06-26T01:36:39;85481.81;;;13.92;29.72
40948;BME280;49382;-25.924;28.194;2023-06-26T01:39:04;85482.05;;;14.15;29.49
40948;BME280;49382;-25.924;28.194;2023-06-26T01:41:29;85482.22;;;14.27;29.59
40948;BME280;49382;-25.924;28.194;2023-06-26T01:44:06;85485.72;;;14.39;29.30
40948;BME280;49382;-25.924;28.194;2023-06-26T01:46:24;85480.80;;;14.66;29.06
40948;BME280;49382;-25.924;28.194;2023-06-26T01:48:53;85478.80;;;14.79;28.88
40948;BME280;49382;-25.924;28.194;2023-06-26T01:51:13;85486.51;;;14.26;29.30
40948;BME280;49382;-25.924;28.194;2023-06-26T01:53:43;85479.95;;;14.82;28.94
40948;BME280;49382;-25.924;28.194;2023-06-26T01:56:07;85480.59;;;14.43;29.47
40948;BME280;49382;-25.924;28.194;2023-06-26T01:58:28;85483.49;;;14.22;29.22
40948;BME280;49382;-25.924;28.194;2023-06-26T02:00:54;85484.26;;;13.48;29.94
40948;BME280;49382;-25.924;28.194;2023-06-26T02:03:18;85484.75;;;13.48;30.64
40948;BME280;49382;-25.924;28.194;2023-06-26T02:05:44;85484.03;;;13.76;30.30
40948;BME280;49382;-25.924;28.194;2023-06-26T02:08:10;85483.66;;;13.98;29.96
40948;BME280;49382;-25.924;28.194;2023-06-26T02:10:34;85483.74;;;13.97;30.16
40948;BME280;49382;-25.924;28.194;2023-06-26T02:13:00;85481.88;;;13.88;30.31
40948;BME280;49382;-25.924;28.194;2023-06-26T02:15:25;85485.44;;;14.10;30.02
40948;BME280;49382;-25.924;28.194;2023-06-26T02:17:51;85485.17;;;14.04;29.95
40948;BME280;49382;-25.924;28.194;2023-06-26T02:20:17;85484.60;;;13.91;30.25
40948;BME280;49382;-25.924;28.194;2023-06-26T02:22:42;85485.92;;;13.88;30.40
40948;BME280;49382;-25.924;28.194;2023-06-26T02:25:08;85490.05;;;14.62;29.94
40948;BME280;49382;-25.924;28.194;2023-06-26T02:27:33;85489.08;;;14.34;30.15
40948;BME280;49382;-25.924;28.194;2023-06-26T02:29:58;85489.28;;;14.20;30.12
40948;BME280;49382;-25.924;28.194;2023-06-26T02:32:24;85491.56;;;14.40;29.97
40948;BME280;49382;-25.924;28.194;2023-06-26T02:34:50;85493.48;;;14.37;30.02
40948;BME280;49382;-25.924;28.194;2023-06-26T02:37:14;85492.75;;;14.22;30.05
40948;BME280;49382;-25.924;28.194;2023-06-26T02:39:40;85486.57;;;14.54;30.03
40948;BME280;49382;-25.924;28.194;2023-06-26T02:42:05;85486.49;;;14.21;30.28
40948;BME280;49382;-25.924;28.194;2023-06-26T02:44:30;85487.18;;;14.31;30.05
40948;BME280;49382;-25.924;28.194;2023-06-26T02:46:55;85491.36;;;14.42;29.97
40948;BME280;49382;-25.924;28.194;2023-06-26T02:49:20;85490.05;;;14.27;30.10
40948;BME280;49382;-25.924;28.194;2023-06-26T02:51:46;85492.98;;;14.31;30.06
40948;BME280;49382;-25.924;28.194;2023-06-26T02:54:12;85491.23;;;13.95;30.34
40948;BME280;49382;-25.924;28.194;2023-06-26T02:56:37;85496.41;;;13.52;31.06
40948;BME280;49382;-25.924;28.194;2023-06-26T02:59:03;85500.92;;;14.32;30.19
40948;BME280;49382;-25.924;28.194;2023-06-26T03:01:28;85498.52;;;13.99;30.87
40948;BME280;49382;-25.924;28.194;2023-06-26T03:03:55;85500.66;;;13.70;30.87
40948;BME280;49382;-25.924;28.194;2023-06-26T03:06:20;85503.67;;;14.38;30.38
40948;BME280;49382;-25.924;28.194;2023-06-26T03:08:45;85500.66;;;13.73;31.24
40948;BME280;49382;-25.924;28.194;2023-06-26T03:11:11;85497.12;;;13.96;30.91
40948;BME280;49382;-25.924;28.194;2023-06-26T03:13:37;85494.87;;;13.64;30.89
40948;BME280;49382;-25.924;28.194;2023-06-26T03:16:01;85494.08;;;13.31;31.18
40948;BME280;49382;-25.924;28.194;2023-06-26T03:18:26;85491.64;;;13.77;30.72
40948;BME280;49382;-25.924;28.194;2023-06-26T03:20:52;85493.01;;;13.58;30.98
40948;BME280;49382;-25.924;28.194;2023-06-26T03:23:18;85497.30;;;13.83;30.76
40948;BME280;49382;-25.924;28.194;2023-06-26T03:25:43;85498.57;;;14.47;30.35
40948;BME280;49382;-25.924;28.194;2023-06-26T03:28:09;85498.69;;;14.13;30.49
40948;BME280;49382;-25.924;28.194;2023-06-26T03:30:35;85495.71;;;13.71;31.20
40948;BME280;49382;-25.924;28.194;2023-06-26T03:33:00;85499.32;;;14.10;30.93
40948;BME280;49382;-25.924;28.194;2023-06-26T03:35:25;85502.89;;;14.35;30.84
40948;BME280;49382;-25.924;28.194;2023-06-26T03:37:51;85502.26;;;14.04;31.29
40948;BME280;49382;-25.924;28.194;2023-06-26T03:40:16;85502.71;;;13.73;31.82
40948;BME280;49382;-25.924;28.194;2023-06-26T03:42:43;85505.12;;;14.00;31.28
40948;BME280;49382;-25.924;28.194;2023-06-26T03:45:08;85500.83;;;12.87;32.17
40948;BME280;49382;-25.924;28.194;2023-06-26T03:47:34;85502.42;;;13.49;31.78
40948;BME280;49382;-25.924;28.194;2023-06-26T03:49:59;85506.94;;;13.52;31.34
40948;BME280;49382;-25.924;28.194;2023-06-26T03:52:25;85507.78;;;13.46;31.59
40948;BME280;49382;-25.924;28.194;2023-06-26T03:54:50;85511.98;;;13.51;31.70
40948;BME280;49382;-25.924;28.194;2023-06-26T03:57:16;85517.48;;;13.84;31.53
40948;BME280;49382;-25.924;28.194;2023-06-26T03:59:41;85523.19;;;13.43;32.38
40948;BME280;49382;-25.924;28.194;2023-06-26T04:02:06;85526.92;;;13.13;32.19
40948;BME280;49382;-25.924;28.194;2023-06-26T04:04:32;85527.42;;;13.51;32.25
40948;BME280;49382;-25.924;28.194;2023-06-26T04:06:58;85531.18;;;13.82;31.76
40948;BME280;49382;-25.924;28.194;2023-06-26T04:09:23;85532.21;;;13.25;32.10
40948;BME280;49382;-25.924;28.194;2023-06-26T04:11:49;85536.83;;;14.07;31.46
40948;BME280;49382;-25.924;28.194;2023-06-26T04:14:14;85538.96;;;13.99;31.44
40948;BME280;49382;-25.924;28.194;2023-06-26T04:16:40;85542.42;;;13.50;31.69
40948;BME280;49382;-25.924;28.194;2023-06-26T04:19:05;85545.28;;;13.48;31.83
40948;BME280;49382;-25.924;28.194;2023-06-26T04:21:31;85548.22;;;14.06;31.80
40948;BME280;49382;-25.924;28.194;2023-06-26T04:23:56;85548.08;;;13.61;31.73
40948;BME280;49382;-25.924;28.194;2023-06-26T04:26:21;85548.88;;;13.27;32.10
40948;BME280;49382;-25.924;28.194;2023-06-26T04:28:47;85545.60;;;13.56;32.21
40948;BME280;49382;-25.924;28.194;2023-06-26T04:31:12;85552.97;;;13.37;32.64
40948;BME280;49382;-25.924;28.194;2023-06-26T04:33:38;85554.16;;;13.66;32.14
40948;BME280;49382;-25.924;28.194;2023-06-26T04:36:03;85556.83;;;14.15;31.95
40948;BME280;49382;-25.924;28.194;2023-06-26T04:38:28;85562.38;;;13.57;32.57
40948;BME280;49382;-25.924;28.194;2023-06-26T04:40:53;85567.02;;;13.93;32.38
40948;BME280;49382;-25.924;28.194;2023-06-26T04:43:19;85562.77;;;14.05;32.07
40948;BME280;49382;-25.924;28.194;2023-06-26T04:45:44;85565.10;;;13.75;32.19
40948;BME280;49382;-25.924;28.194;2023-06-26T04:48:10;85568.96;;;13.89;31.99
40948;BME280;49382;-25.924;28.194;2023-06-26T04:50:35;85568.12;;;13.70;32.23
40948;BME280;49382;-25.924;28.194;2023-06-26T04:53:01;85570.89;;;13.96;32.06
40948;BME280;49382;-25.924;28.194;2023-06-26T04:55:26;85575.24;;;13.16;32.52
40948;BME280;49382;-25.924;28.194;2023-06-26T04:57:51;85573.58;;;13.82;32.13
40948;BME280;49382;-25.924;28.194;2023-06-26T05:00:17;85576.33;;;13.59;32.51
40948;BME280;49382;-25.924;28.194;2023-06-26T05:02:43;85577.64;;;13.92;32.13
40948;BME280;49382;-25.924;28.194;2023-06-26T05:05:09;85582.39;;;13.14;32.64
40948;BME280;49382;-25.924;28.194;2023-06-26T05:07:34;85582.29;;;13.87;32.29
40948;BME280;49382;-25.924;28.194;2023-06-26T05:09:59;85585.48;;;13.96;31.73
40948;BME280;49382;-25.924;28.194;2023-06-26T05:12:25;85585.37;;;14.25;31.52
40948;BME280;49382;-25.924;28.194;2023-06-26T05:14:50;85587.13;;;13.52;32.25
40948;BME280;49382;-25.924;28.194;2023-06-26T05:17:16;85585.58;;;13.65;32.53
40948;BME280;49382;-25.924;28.194;2023-06-26T05:19:41;85588.22;;;13.86;32.15
40948;BME280;49382;-25.924;28.194;2023-06-26T05:22:07;85592.75;;;14.41;32.01
40948;BME280;49382;-25.924;28.194;2023-06-26T05:24:32;85592.27;;;14.41;31.78
40948;BME280;49382;-25.924;28.194;2023-06-26T05:26:58;85593.68;;;14.02;31.94
40948;BME280;49382;-25.924;28.194;2023-06-26T05:29:24;85593.31;;;14.46;31.59
40948;BME280;49382;-25.924;28.194;2023-06-26T05:31:50;85589.34;;;13.87;31.74
40948;BME280;49382;-25.924;28.194;2023-06-26T05:34:15;85591.03;;;14.34;31.81
40948;BME280;49382;-25.924;28.194;2023-06-26T05:36:42;85592.92;;;13.91;32.26
40948;BME280;49382;-25.924;28.194;2023-06-26T05:39:07;85595.54;;;14.28;32.18
40948;BME280;49382;-25.924;28.194;2023-06-26T05:41:32;85591.34;;;14.04;32.57
40948;BME280;49382;-25.924;28.194;2023-06-26T05:43:57;85592.26;;;13.85;32.36
40948;BME280;49382;-25.924;28.194;2023-06-26T05:46:23;85595.12;;;13.99;32.10
40948;BME280;49382;-25.924;28.194;2023-06-26T05:48:49;85593.43;;;14.02;32.17
40948;BME280;49382;-25.924;28.194;2023-06-26T05:51:14;85599.86;;;14.53;32.45
40948;BME280;49382;-25.924;28.194;2023-06-26T05:53:40;85602.45;;;14.53;32.37
40948;BME280;49382;-25.924;28.194;2023-06-26T05:56:05;85604.34;;;14.62;32.35
40948;BME280;49382;-25.924;28.194;2023-06-26T05:58:31;85604.31;;;14.21;33.29
40948;BME280;49382;-25.924;28.194;2023-06-26T06:00:56;85607.93;;;14.74;32.64
40948;BME280;49382;-25.924;28.194;2023-06-26T06:03:22;85608.48;;;15.07;32.55
40948;BME280;49382;-25.924;28.194;2023-06-26T06:05:47;85611.52;;;15.30;31.41
40948;BME280;49382;-25.924;28.194;2023-06-26T06:08:12;85611.02;;;15.07;31.58
40948;BME280;49382;-25.924;28.194;2023-06-26T06:10:38;85602.51;;;15.59;30.87
40948;BME280;49382;-25.924;28.194;2023-06-26T06:13:03;85604.27;;;15.97;30.68
40948;BME280;49382;-25.924;28.194;2023-06-26T06:15:28;85604.37;;;15.79;30.70
40948;BME280;49382;-25.924;28.194;2023-06-26T06:17:54;85606.20;;;16.45;30.40
40948;BME280;49382;-25.924;28.194;2023-06-26T06:20:19;85606.48;;;15.90;30.98
40948;BME280;49382;-25.924;28.194;2023-06-26T06:22:45;85608.93;;;16.37;30.10
40948;BME280;49382;-25.924;28.194;2023-06-26T06:25:11;85609.42;;;16.84;29.97
40948;BME280;49382;-25.924;28.194;2023-06-26T06:27:36;85611.75;;;16.92;29.91
40948;BME280;49382;-25.924;28.194;2023-06-26T06:30:02;85612.45;;;17.42;29.66
40948;BME280;49382;-25.924;28.194;2023-06-26T06:32:27;85619.59;;;17.82;29.99
40948;BME280;49382;-25.924;28.194;2023-06-26T06:34:53;85619.05;;;17.97;28.95
40948;BME280;49382;-25.924;28.194;2023-06-26T06:37:18;85619.44;;;18.24;29.28
40948;BME280;49382;-25.924;28.194;2023-06-26T06:39:43;85618.72;;;18.70;27.89
40948;BME280;49382;-25.924;28.194;2023-06-26T06:42:09;85625.13;;;20.28;26.00
40948;BME280;49382;-25.924;28.194;2023-06-26T06:44:35;85624.73;;;23.85;21.99
40948;BME280;49382;-25.924;28.194;2023-06-26T06:47:00;85630.26;;;26.80;18.86
40948;BME280;49382;-25.924;28.194;2023-06-26T06:49:26;85628.50;;;29.17;16.84
40948;BME280;49382;-25.924;28.194;2023-06-26T06:51:51;85631.99;;;30.92;15.27
40948;BME280;49382;-25.924;28.194;2023-06-26T06:54:17;85632.15;;;31.92;13.80
40948;BME280;49382;-25.924;28.194;2023-06-26T06:56:42;85627.80;;;32.89;12.81
40948;BME280;49382;-25.924;28.194;2023-06-26T06:59:08;85627.92;;;34.40;11.55
40948;BME280;49382;-25.924;28.194;2023-06-26T07:01:34;85630.16;;;34.65;11.57
40948;BME280;49382;-25.924;28.194;2023-06-26T07:03:59;85632.04;;;35.19;10.72
40948;BME280;49382;-25.924;28.194;2023-06-26T07:06:25;85634.58;;;36.12;10.45
40948;BME280;49382;-25.924;28.194;2023-06-26T07:08:50;85633.23;;;37.17;9.47
40948;BME280;49382;-25.924;28.194;2023-06-26T07:11:16;85635.57;;;38.13;9.15
40948;BME280;49382;-25.924;28.194;2023-06-26T07:13:41;85634.59;;;36.64;10.17
40948;BME280;49382;-25.924;28.194;2023-06-26T07:16:06;85636.45;;;38.03;9.09
40948;BME280;49382;-25.924;28.194;2023-06-26T07:18:32;85639.89;;;38.35;8.83
40948;BME280;49382;-25.924;28.194;2023-06-26T07:20:58;85641.46;;;39.85;8.20
40948;BME280;49382;-25.924;28.194;2023-06-26T07:23:23;85648.58;;;40.38;7.99
40948;BME280;49382;-25.924;28.194;2023-06-26T07:25:49;85649.51;;;40.56;7.54
40948;BME280;49382;-25.924;28.194;2023-06-26T07:28:14;85648.76;;;41.24;7.64
40948;BME280;49382;-25.924;28.194;2023-06-26T07:30:39;85647.41;;;40.91;7.49
40948;BME280;49382;-25.924;28.194;2023-06-26T07:33:04;85644.01;;;39.86;7.74
40948;BME280;49382;-25.924;28.194;2023-06-26T07:35:29;85645.99;;;41.22;7.63
40948;BME280;49382;-25.924;28.194;2023-06-26T07:37:55;85640.39;;;40.70;7.39
40948;BME280;49382;-25.924;28.194;2023-06-26T07:40:21;85640.01;;;40.87;7.56
40948;BME280;49382;-25.924;28.194;2023-06-26T07:42:47;85637.62;;;40.59;7.26
40948;BME280;49382;-25.924;28.194;2023-06-26T07:45:13;85632.08;;;40.03;7.36
40948;BME280;49382;-25.924;28.194;2023-06-26T07:47:39;85627.30;;;43.66;6.15
40948;BME280;49382;-25.924;28.194;2023-06-26T07:50:04;85617.31;;;37.89;7.85
40948;BME280;49382;-25.924;28.194;2023-06-26T07:52:30;85623.57;;;40.34;7.05
40948;BME280;49382;-25.924;28.194;2023-06-26T07:54:55;85623.80;;;42.36;5.94
40948;BME280;49382;-25.924;28.194;2023-06-26T07:57:21;85620.40;;;44.06;5.53
40948;BME280;49382;-25.924;28.194;2023-06-26T07:59:47;85620.01;;;41.28;7.22
40948;BME280;49382;-25.924;28.194;2023-06-26T08:02:12;85617.61;;;41.59;7.00
40948;BME280;49382;-25.924;28.194;2023-06-26T08:04:38;85607.93;;;41.88;6.46
40948;BME280;49382;-25.924;28.194;2023-06-26T08:07:04;85609.73;;;44.57;5.53
40948;BME280;49382;-25.924;28.194;2023-06-26T08:09:30;85610.42;;;42.92;6.21
40948;BME280;49382;-25.924;28.194;2023-06-26T08:11:55;85606.02;;;42.34;6.64
40948;BME280;49382;-25.924;28.194;2023-06-26T08:14:20;85608.60;;;45.73;5.01
40948;BME280;49382;-25.924;28.194;2023-06-26T08:16:46;85608.09;;;45.50;5.15
40948;BME280;49382;-25.924;28.194;2023-06-26T08:19:12;85607.10;;;43.60;6.01
40948;BME280;49382;-25.924;28.194;2023-06-26T08:21:37;85600.70;;;44.58;5.41
40948;BME280;49382;-25.924;28.194;2023-06-26T08:24:03;85601.48;;;45.76;4.44
40948;BME280;49382;-25.924;28.194;2023-06-26T08:26:29;85598.81;;;44.91;5.03
40948;BME280;49382;-25.924;28.194;2023-06-26T08:28:55;85599.45;;;45.07;4.74
40948;BME280;49382;-25.924;28.194;2023-06-26T08:31:20;85600.57;;;45.47;4.63
40948;BME280;49382;-25.924;28.194;2023-06-26T08:33:46;85599.36;;;47.08;4.44
40948;BME280;49382;-25.924;28.194;2023-06-26T08:36:11;85593.10;;;45.75;4.69
40948;BME280;49382;-25.924;28.194;2023-06-26T08:38:36;85593.96;;;46.86;4.01
40948;BME280;49382;-25.924;28.194;2023-06-26T08:41:02;85591.34;;;45.98;4.25
40948;BME280;49382;-25.924;28.194;2023-06-26T08:43:27;85587.49;;;45.99;4.35
40948;BME280;49382;-25.924;28.194;2023-06-26T08:45:53;85585.63;;;46.87;3.99
40948;BME280;49382;-25.924;28.194;2023-06-26T08:48:19;85581.97;;;44.37;4.67
40948;BME280;49382;-25.924;28.194;2023-06-26T08:50:45;85579.14;;;44.14;5.23
40948;BME280;49382;-25.924;28.194;2023-06-26T08:53:17;85575.83;;;47.01;4.04
40948;BME280;49382;-25.924;28.194;2023-06-26T08:55:37;85571.52;;;46.49;4.18
40948;BME280;49382;-25.924;28.194;2023-06-26T08:58:02;85571.63;;;49.32;3.28
40948;BME280;49382;-25.924;28.194;2023-06-26T09:00:27;85568.87;;;47.47;4.06
40948;BME280;49382;-25.924;28.194;2023-06-26T09:02:53;85567.70;;;48.03;3.64
40948;BME280;49382;-25.924;28.194;2023-06-26T09:05:18;85567.70;;;48.58;3.95
40948;BME280;49382;-25.924;28.194;2023-06-26T09:07:44;85556.53;;;43.06;4.93
40948;BME280;49382;-25.924;28.194;2023-06-26T09:10:10;85561.61;;;47.70;3.96
40948;BME280;49382;-25.924;28.194;2023-06-26T09:12:35;85558.04;;;46.02;4.56
40948;BME280;49382;-25.924;28.194;2023-06-26T09:15:02;85545.40;;;41.02;6.30
40948;BME280;49382;-25.924;28.194;2023-06-26T09:17:30;85535.05;;;41.63;6.13
40948;BME280;49382;-25.924;28.194;2023-06-26T09:19:52;85526.63;;;38.04;7.52
40948;BME280;49382;-25.924;28.194;2023-06-26T09:22:18;85519.05;;;32.74;10.87
40948;BME280;49382;-25.924;28.194;2023-06-26T09:24:44;85509.94;;;31.63;11.59
40948;BME280;49382;-25.924;28.194;2023-06-26T09:27:09;85502.38;;;29.10;14.29
40948;BME280;49382;-25.924;28.194;2023-06-26T09:29:34;85495.52;;;29.33;14.06
40948;BME280;49382;-25.924;28.194;2023-06-26T09:32:00;85493.04;;;29.33;14.55
40948;BME280;49382;-25.924;28.194;2023-06-26T09:34:30;85490.32;;;28.04;15.52
40948;BME280;49382;-25.924;28.194;2023-06-26T09:36:53;85488.22;;;26.57;16.57
40948;BME280;49382;-25.924;28.194;2023-06-26T09:39:17;85483.98;;;26.24;15.78
40948;BME280;49382;-25.924;28.194;2023-06-26T09:41:43;85477.15;;;27.22;15.99
40948;BME280;49382;-25.924;28.194;2023-06-26T09:44:10;85476.71;;;25.59;17.20
40948;BME280;49382;-25.924;28.194;2023-06-26T09:46:33;85475.65;;;26.72;17.52
40948;BME280;49382;-25.924;28.194;2023-06-26T09:49:02;85470.33;;;24.71;18.74
40948;BME280;49382;-25.924;28.194;2023-06-26T09:51:23;85465.14;;;25.09;16.99
40948;BME280;49382;-25.924;28.194;2023-06-26T09:53:50;85465.80;;;26.02;17.56
40948;BME280;49382;-25.924;28.194;2023-06-26T09:56:17;85459.63;;;25.06;17.83
40948;BME280;49382;-25.924;28.194;2023-06-26T09:58:41;85457.68;;;25.02;18.47
40948;BME280;49382;-25.924;28.194;2023-06-26T10:01:05;85454.43;;;24.44;20.02
40948;BME280;49382;-25.924;28.194;2023-06-26T10:03:31;85456.17;;;24.92;19.73
40948;BME280;49382;-25.924;28.194;2023-06-26T10:05:57;85455.96;;;23.01;22.24
40948;BME280;49382;-25.924;28.194;2023-06-26T10:08:22;85449.57;;;24.82;21.66
40948;BME280;49382;-25.924;28.194;2023-06-26T10:10:47;85445.08;;;24.48;21.26
40948;BME280;49382;-25.924;28.194;2023-06-26T10:13:18;85440.60;;;24.88;21.40
40948;BME280;49382;-25.924;28.194;2023-06-26T10:15:38;85438.04;;;24.67;23.06
40948;BME280;49382;-25.924;28.194;2023-06-26T10:18:02;85432.61;;;24.93;20.76
40948;BME280;49382;-25.924;28.194;2023-06-26T10:20:28;85429.76;;;23.58;20.08
40948;BME280;49382;-25.924;28.194;2023-06-26T10:22:57;85426.46;;;24.08;21.36
40948;BME280;49382;-25.924;28.194;2023-06-26T10:25:20;85419.23;;;23.93;21.16
40948;BME280;49382;-25.924;28.194;2023-06-26T10:27:49;85412.53;;;24.21;21.37
40948;BME280;49382;-25.924;28.194;2023-06-26T10:30:14;85411.41;;;24.44;21.83
40948;BME280;49382;-25.924;28.194;2023-06-26T10:32:35;85408.73;;;23.49;20.38
40948;BME280;49382;-25.924;28.194;2023-06-26T10:35:00;85400.83;;;22.89;20.67
40948;BME280;49382;-25.924;28.194;2023-06-26T10:39:52;85393.03;;;24.91;20.12
40948;BME280;49382;-25.924;28.194;2023-06-26T10:42:17;85389.11;;;24.29;22.67
40948;BME280;49382;-25.924;28.194;2023-06-26T10:44:43;85384.50;;;24.26;20.72
40948;BME280;49382;-25.924;28.194;2023-06-26T10:47:07;85387.31;;;23.19;20.31
40948;BME280;49382;-25.924;28.194;2023-06-26T10:49:34;85385.12;;;23.57;19.80
40948;BME280;49382;-25.924;28.194;2023-06-26T10:52:01;85380.37;;;23.14;20.06
40948;BME280;49382;-25.924;28.194;2023-06-26T10:54:23;85371.75;;;22.55;20.10
40948;BME280;49382;-25.924;28.194;2023-06-26T10:56:50;85372.30;;;23.75;18.84
40948;BME280;49382;-25.924;28.194;2023-06-26T10:59:17;85368.51;;;24.49;19.88
40948;BME280;49382;-25.924;28.194;2023-06-26T11:01:41;85365.92;;;22.97;21.01
40948;BME280;49382;-25.924;28.194;2023-06-26T11:04:06;85360.56;;;22.90;19.12
40948;BME280;49382;-25.924;28.194;2023-06-26T11:06:31;85356.40;;;21.93;20.41
40948;BME280;49382;-25.924;28.194;2023-06-26T11:09:01;85352.79;;;22.41;20.82
40948;BME280;49382;-25.924;28.194;2023-06-26T11:11:21;85349.57;;;22.80;19.67
40948;BME280;49382;-25.924;28.194;2023-06-26T11:13:47;85349.05;;;22.90;19.72
40948;BME280;49382;-25.924;28.194;2023-06-26T11:16:12;85339.42;;;23.00;19.39
40948;BME280;49382;-25.924;28.194;2023-06-26T11:18:37;85342.06;;;22.93;19.58
40948;BME280;49382;-25.924;28.194;2023-06-26T11:21:06;85336.94;;;23.02;19.53
40948;BME280;49382;-25.924;28.194;2023-06-26T11:23:27;85333.89;;;22.74;19.16
40948;BME280;49382;-25.924;28.194;2023-06-26T11:25:53;85327.58;;;23.23;19.78
40948;BME280;49382;-25.924;28.194;2023-06-26T11:28:18;85320.81;;;23.06;18.94
40948;BME280;49382;-25.924;28.194;2023-06-26T11:30:44;85318.68;;;23.20;18.34
40948;BME280;49382;-25.924;28.194;2023-06-26T11:33:10;85321.41;;;21.81;19.70
40948;BME280;49382;-25.924;28.194;2023-06-26T11:35:34;85318.72;;;22.05;19.08
40948;BME280;49382;-25.924;28.194;2023-06-26T11:38:00;85311.15;;;21.89;19.13
40948;BME280;49382;-25.924;28.194;2023-06-26T11:40:25;85302.41;;;21.13;19.10
40948;BME280;49382;-25.924;28.194;2023-06-26T11:42:50;85302.57;;;22.27;20.38
40948;BME280;49382;-25.924;28.194;2023-06-26T11:45:14;85298.99;;;22.31;19.45
40948;BME280;49382;-25.924;28.194;2023-06-26T11:47:40;85297.90;;;21.92;18.29
40948;BME280;49382;-25.924;28.194;2023-06-26T11:50:06;85294.32;;;22.54;19.60
40948;BME280;49382;-25.924;28.194;2023-06-26T11:52:33;85286.67;;;21.82;19.23
40948;BME280;49382;-25.924;28.194;2023-06-26T11:54:55;85284.89;;;22.98;18.43
40948;BME280;49382;-25.924;28.194;2023-06-26T11:57:21;85284.97;;;23.31;18.15
40948;BME280;49382;-25.924;28.194;2023-06-26T11:59:49;85284.68;;;22.47;18.75
40948;BME280;49382;-25.924;28.194;2023-06-26T12:02:14;85278.62;;;22.14;19.19
40948;BME280;49382;-25.924;28.194;2023-06-26T12:04:38;85277.96;;;21.20;19.67
40948;BME280;49382;-25.924;28.194;2023-06-26T12:07:03;85279.49;;;22.29;18.36
40948;BME280;49382;-25.924;28.194;2023-06-26T12:09:27;85278.99;;;21.45;18.53
40948;BME280;49382;-25.924;28.194;2023-06-26T12:11:54;85274.06;;;22.09;18.63
40948;BME280;49382;-25.924;28.194;2023-06-26T12:14:20;85270.23;;;22.59;18.36
40948;BME280;49382;-25.924;28.194;2023-06-26T12:16:44;85267.10;;;22.31;18.60
40948;BME280;49382;-25.924;28.194;2023-06-26T12:19:10;85263.81;;;23.03;18.61
40948;BME280;49382;-25.924;28.194;2023-06-26T12:24:01;85259.95;;;22.82;18.04
40948;BME280;49382;-25.924;28.194;2023-06-26T12:26:27;85258.71;;;22.48;17.76
40948;BME280;49382;-25.924;28.194;2023-06-26T12:28:51;85257.03;;;22.72;18.41
40948;BME280;49382;-25.924;28.194;2023-06-26T12:31:17;85256.19;;;23.03;18.37
40948;BME280;49382;-25.924;28.194;2023-06-26T12:33:42;85256.06;;;22.65;18.66
40948;BME280;49382;-25.924;28.194;2023-06-26T12:36:11;85255.26;;;21.40;19.64
40948;BME280;49382;-25.924;28.194;2023-06-26T12:38:34;85258.45;;;21.09;19.61